KEKS

Details ICAO KEKS
Name Ennis Big Sky
Region United States
Timezone America/Denver (UTC-6.0)
Plans Departing 7
Arriving 11
Stats Elevation 5,383 ft / 1,641 m (AMSL)
Location 45.271758° -111.648639°
Runways 1
Magnetic Variation 11.991° E
Sunrise 2018-05-23 11:49:59 UTC / 2018-05-23 05:49:59 Local
Sunset 2018-05-24 02:59:37 UTC / 2018-05-23 20:59:37 Local
Advertisement - Login to hide

Runways

ID Width Length Bearing (true) Bearing (mag) Surface Threshold Offset Overrun Length
16 75 ft / 23 m 4,697 ft / 1,432 m 176.60° 164.61° Asphalt 0 ft / 0 m 0 ft / 0 m
34 75 ft / 23 m 4,697 ft / 1,432 m 356.60° 344.61° Asphalt 0 ft / 0 m 0 ft / 0 m

Map

Weather


0- 5 10 15 20 25 30 35+ Temperature / ° C

Clouds and Precipitation
Forecast for 2018-05-23 18:00 UTC. Updated 4 hours ago

Ground ~20,000 ft ~40,000 ft Winds

METAR

KEKS 232115Z AUTO 21008KT 3SM -RA SCT021 BKN029 OVC035 11/10 A2999 RMK AO2

TAF

TAF KEKS 231720Z 2318/2418 VRB05KT 6SM -SHRA SCT006 OVC025 TEMPO 2318/2322 4SM TSRA BR BKN006CB FM232200 21008KT P6SM SCT015 OVC035 TEMPO 2322/2402 4SM -SHRA SCT010 BKN025 FM240200 17010KT P6SM SCT015 BKN060 PROB30 2403/2406 4SM -SHRA BKN015

Frequencies

Unicom 122.80 MHz CTAF/UNICOM
Warning: Do not use this data for real-world aviation or navigation. No guarantee of current accuracy is given.